sensor_id;sensor_type;location;lat;lon;timestamp;P1;durP1;ratioP1;P2;durP2;ratioP2
76447;SDS011;65284;51.040;13.722;2023-10-31T00:01:57;12.10;;;6.10;;
76447;SDS011;65284;51.040;13.722;2023-10-31T00:04:23;10.23;;;6.30;;
76447;SDS011;65284;51.040;13.722;2023-10-31T00:06:50;14.63;;;7.10;;
76447;SDS011;65284;51.040;13.722;2023-10-31T00:09:16;11.70;;;6.18;;
76447;SDS011;65284;51.040;13.722;2023-10-31T00:11:43;11.57;;;5.80;;
76447;SDS011;65284;51.040;13.722;2023-10-31T00:14:10;10.57;;;5.72;;
76447;SDS011;65284;51.040;13.722;2023-10-31T00:16:56;8.60;;;5.78;;
76447;SDS011;65284;51.040;13.722;2023-10-31T00:19:23;11.52;;;5.78;;
76447;SDS011;65284;51.040;13.722;2023-10-31T00:21:49;10.82;;;6.32;;
76447;SDS011;65284;51.040;13.722;2023-10-31T00:24:16;10.65;;;6.32;;
76447;SDS011;65284;51.040;13.722;2023-10-31T00:26:42;10.43;;;6.10;;
76447;SDS011;65284;51.040;13.722;2023-10-31T00:29:08;10.98;;;6.25;;
76447;SDS011;65284;51.040;13.722;2023-10-31T00:31:35;8.68;;;5.85;;
76447;SDS011;65284;51.040;13.722;2023-10-31T00:34:01;9.45;;;6.45;;
76447;SDS011;65284;51.040;13.722;2023-10-31T00:36:28;10.82;;;6.30;;
76447;SDS011;65284;51.040;13.722;2023-10-31T00:38:55;12.55;;;6.07;;
76447;SDS011;65284;51.040;13.722;2023-10-31T00:41:21;14.30;;;6.40;;
76447;SDS011;65284;51.040;13.722;2023-10-31T00:43:47;12.23;;;7.07;;
76447;SDS011;65284;51.040;13.722;2023-10-31T00:46:14;10.80;;;6.82;;
76447;SDS011;65284;51.040;13.722;2023-10-31T00:48:41;10.98;;;6.07;;
76447;SDS011;65284;51.040;13.722;2023-10-31T00:51:07;10.63;;;6.28;;
76447;SDS011;65284;51.040;13.722;2023-10-31T00:53:34;12.23;;;6.40;;
76447;SDS011;65284;51.040;13.722;2023-10-31T00:56:01;10.60;;;6.68;;
76447;SDS011;65284;51.040;13.722;2023-10-31T00:58:28;12.93;;;6.63;;
76447;SDS011;65284;51.040;13.722;2023-10-31T01:00:54;13.27;;;6.20;;
76447;SDS011;65284;51.040;13.722;2023-10-31T01:03:21;11.88;;;7.35;;
76447;SDS011;65284;51.040;13.722;2023-10-31T01:05:47;13.02;;;7.38;;
76447;SDS011;65284;51.040;13.722;2023-10-31T01:08:14;11.13;;;7.10;;
76447;SDS011;65284;51.040;13.722;2023-10-31T01:10:41;14.27;;;8.43;;
76447;SDS011;65284;51.040;13.722;2023-10-31T01:13:07;12.30;;;6.35;;
76447;SDS011;65284;51.040;13.722;2023-10-31T01:15:34;9.77;;;6.07;;
76447;SDS011;65284;51.040;13.722;2023-10-31T01:18:01;11.95;;;6.47;;
76447;SDS011;65284;51.040;13.722;2023-10-31T01:20:27;12.05;;;6.53;;
76447;SDS011;65284;51.040;13.722;2023-10-31T01:22:53;10.63;;;6.55;;
76447;SDS011;65284;51.040;13.722;2023-10-31T01:25:20;12.02;;;6.57;;
76447;SDS011;65284;51.040;13.722;2023-10-31T01:27:46;14.68;;;7.28;;
76447;SDS011;65284;51.040;13.722;2023-10-31T01:30:13;10.13;;;6.50;;
76447;SDS011;65284;51.040;13.722;2023-10-31T01:32:40;14.80;;;6.55;;
76447;SDS011;65284;51.040;13.722;2023-10-31T01:35:06;9.38;;;6.60;;
76447;SDS011;65284;51.040;13.722;2023-10-31T01:37:33;13.30;;;7.18;;
76447;SDS011;65284;51.040;13.722;2023-10-31T01:40:00;12.18;;;6.95;;
76447;SDS011;65284;51.040;13.722;2023-10-31T01:42:26;10.48;;;6.22;;
76447;SDS011;65284;51.040;13.722;2023-10-31T01:44:52;11.02;;;6.40;;
76447;SDS011;65284;51.040;13.722;2023-10-31T01:47:19;9.05;;;6.22;;
76447;SDS011;65284;51.040;13.722;2023-10-31T01:49:45;12.38;;;7.03;;
76447;SDS011;65284;51.040;13.722;2023-10-31T01:52:12;16.67;;;9.18;;
76447;SDS011;65284;51.040;13.722;2023-10-31T01:54:39;17.33;;;10.38;;
76447;SDS011;65284;51.040;13.722;2023-10-31T01:57:05;12.57;;;7.55;;
76447;SDS011;65284;51.040;13.722;2023-10-31T01:59:32;12.35;;;7.38;;
76447;SDS011;65284;51.040;13.722;2023-10-31T02:01:58;13.55;;;7.10;;
76447;SDS011;65284;51.040;13.722;2023-10-31T02:04:26;12.10;;;7.25;;
76447;SDS011;65284;51.040;13.722;2023-10-31T02:06:53;12.10;;;7.30;;
76447;SDS011;65284;51.040;13.722;2023-10-31T02:09:19;10.77;;;7.47;;
76447;SDS011;65284;51.040;13.722;2023-10-31T02:11:50;10.82;;;7.30;;
76447;SDS011;65284;51.040;13.722;2023-10-31T02:14:16;14.13;;;8.07;;
76447;SDS011;65284;51.040;13.722;2023-10-31T02:16:43;13.07;;;8.00;;
76447;SDS011;65284;51.040;13.722;2023-10-31T02:19:09;11.73;;;7.72;;
76447;SDS011;65284;51.040;13.722;2023-10-31T02:21:39;11.90;;;7.78;;
76447;SDS011;65284;51.040;13.722;2023-10-31T02:24:05;10.45;;;7.82;;
76447;SDS011;65284;51.040;13.722;2023-10-31T02:26:33;13.88;;;7.93;;
76447;SDS011;65284;51.040;13.722;2023-10-31T02:29:00;12.35;;;7.72;;
76447;SDS011;65284;51.040;13.722;2023-10-31T02:31:28;13.73;;;8.35;;
76447;SDS011;65284;51.040;13.722;2023-10-31T02:33:54;15.93;;;9.57;;
76447;SDS011;65284;51.040;13.722;2023-10-31T02:36:21;14.40;;;9.10;;
76447;SDS011;65284;51.040;13.722;2023-10-31T02:38:47;13.38;;;8.38;;
76447;SDS011;65284;51.040;13.722;2023-10-31T02:41:14;13.50;;;8.35;;
76447;SDS011;65284;51.040;13.722;2023-10-31T02:43:41;13.35;;;9.20;;
76447;SDS011;65284;51.040;13.722;2023-10-31T02:46:08;15.80;;;9.55;;
76447;SDS011;65284;51.040;13.722;2023-10-31T02:48:35;15.80;;;9.73;;
76447;SDS011;65284;51.040;13.722;2023-10-31T02:51:06;14.73;;;9.88;;
76447;SDS011;65284;51.040;13.722;2023-10-31T02:53:35;15.30;;;10.13;;
76447;SDS011;65284;51.040;13.722;2023-10-31T02:56:02;16.48;;;10.82;;
76447;SDS011;65284;51.040;13.722;2023-10-31T02:58:30;16.15;;;10.23;;
76447;SDS011;65284;51.040;13.722;2023-10-31T03:00:56;15.23;;;10.30;;
76447;SDS011;65284;51.040;13.722;2023-10-31T03:03:22;15.90;;;10.80;;
76447;SDS011;65284;51.040;13.722;2023-10-31T03:05:49;17.10;;;11.27;;
76447;SDS011;65284;51.040;13.722;2023-10-31T03:08:15;17.90;;;10.90;;
76447;SDS011;65284;51.040;13.722;2023-10-31T03:10:47;19.23;;;11.95;;
76447;SDS011;65284;51.040;13.722;2023-10-31T03:13:16;19.45;;;11.80;;
76447;SDS011;65284;51.040;13.722;2023-10-31T03:15:46;20.77;;;11.73;;
76447;SDS011;65284;51.040;13.722;2023-10-31T03:18:14;20.88;;;12.38;;
76447;SDS011;65284;51.040;13.722;2023-10-31T03:20:43;20.08;;;12.82;;
76447;SDS011;65284;51.040;13.722;2023-10-31T03:23:11;20.33;;;12.38;;
76447;SDS011;65284;51.040;13.722;2023-10-31T03:25:39;20.10;;;13.32;;
76447;SDS011;65284;51.040;13.722;2023-10-31T03:28:17;22.58;;;13.48;;
76447;SDS011;65284;51.040;13.722;2023-10-31T03:30:49;20.70;;;12.30;;
76447;SDS011;65284;51.040;13.722;2023-10-31T03:33:17;21.85;;;12.15;;
76447;SDS011;65284;51.040;13.722;2023-10-31T03:35:44;20.27;;;12.43;;
76447;SDS011;65284;51.040;13.722;2023-10-31T03:38:11;19.60;;;12.02;;
76447;SDS011;65284;51.040;13.722;2023-10-31T03:40:37;18.40;;;10.60;;
76447;SDS011;65284;51.040;13.722;2023-10-31T03:43:04;16.02;;;10.05;;
76447;SDS011;65284;51.040;13.722;2023-10-31T03:45:31;16.40;;;9.90;;
76447;SDS011;65284;51.040;13.722;2023-10-31T03:47:57;15.65;;;9.40;;
76447;SDS011;65284;51.040;13.722;2023-10-31T03:50:24;13.55;;;7.95;;
76447;SDS011;65284;51.040;13.722;2023-10-31T03:52:51;12.80;;;7.38;;
76447;SDS011;65284;51.040;13.722;2023-10-31T03:55:18;12.10;;;7.32;;
76447;SDS011;65284;51.040;13.722;2023-10-31T03:57:45;10.57;;;6.55;;
76447;SDS011;65284;51.040;13.722;2023-10-31T04:00:11;9.75;;;5.95;;
76447;SDS011;65284;51.040;13.722;2023-10-31T04:02:39;11.82;;;6.05;;
76447;SDS011;65284;51.040;13.722;2023-10-31T04:05:06;13.73;;;6.20;;
76447;SDS011;65284;51.040;13.722;2023-10-31T04:07:33;8.38;;;5.22;;
76447;SDS011;65284;51.040;13.722;2023-10-31T04:10:00;10.25;;;5.70;;
76447;SDS011;65284;51.040;13.722;2023-10-31T04:12:26;10.15;;;5.88;;
76447;SDS011;65284;51.040;13.722;2023-10-31T04:14:52;10.25;;;6.10;;
76447;SDS011;65284;51.040;13.722;2023-10-31T04:17:19;11.82;;;5.88;;
76447;SDS011;65284;51.040;13.722;2023-10-31T04:19:45;10.45;;;5.80;;
76447;SDS011;65284;51.040;13.722;2023-10-31T04:22:12;11.00;;;5.43;;
76447;SDS011;65284;51.040;13.722;2023-10-31T04:24:38;8.80;;;5.50;;
76447;SDS011;65284;51.040;13.722;2023-10-31T04:27:05;10.10;;;5.90;;
76447;SDS011;65284;51.040;13.722;2023-10-31T04:29:31;11.95;;;6.10;;
76447;SDS011;65284;51.040;13.722;2023-10-31T04:31:58;8.77;;;5.40;;
76447;SDS011;65284;51.040;13.722;2023-10-31T04:34:24;9.00;;;5.45;;
76447;SDS011;65284;51.040;13.722;2023-10-31T04:36:51;9.88;;;5.43;;
76447;SDS011;65284;51.040;13.722;2023-10-31T04:39:17;7.93;;;5.18;;
76447;SDS011;65284;51.040;13.722;2023-10-31T04:41:43;10.57;;;5.15;;
76447;SDS011;65284;51.040;13.722;2023-10-31T04:44:10;9.25;;;5.07;;
76447;SDS011;65284;51.040;13.722;2023-10-31T04:46:36;7.57;;;4.47;;
76447;SDS011;65284;51.040;13.722;2023-10-31T04:49:03;7.22;;;4.15;;
76447;SDS011;65284;51.040;13.722;2023-10-31T04:51:33;5.57;;;3.55;;
76447;SDS011;65284;51.040;13.722;2023-10-31T04:54:03;8.85;;;3.35;;
76447;SDS011;65284;51.040;13.722;2023-10-31T04:56:30;6.60;;;3.20;;
76447;SDS011;65284;51.040;13.722;2023-10-31T04:58:57;4.78;;;3.00;;
76447;SDS011;65284;51.040;13.722;2023-10-31T05:01:23;4.22;;;2.20;;
76447;SDS011;65284;51.040;13.722;2023-10-31T05:03:50;4.00;;;2.10;;
76447;SDS011;65284;51.040;13.722;2023-10-31T05:06:32;3.45;;;1.80;;
76447;SDS011;65284;51.040;13.722;2023-10-31T05:08:58;3.97;;;1.73;;
76447;SDS011;65284;51.040;13.722;2023-10-31T05:11:25;3.40;;;1.80;;
76447;SDS011;65284;51.040;13.722;2023-10-31T05:13:51;5.05;;;1.80;;
76447;SDS011;65284;51.040;13.722;2023-10-31T05:16:18;3.03;;;1.52;;
76447;SDS011;65284;51.040;13.722;2023-10-31T05:18:45;2.78;;;1.40;;
76447;SDS011;65284;51.040;13.722;2023-10-31T05:21:11;2.40;;;1.40;;
76447;SDS011;65284;51.040;13.722;2023-10-31T05:23:38;3.83;;;1.50;;
76447;SDS011;65284;51.040;13.722;2023-10-31T05:26:05;3.72;;;1.50;;
76447;SDS011;65284;51.040;13.722;2023-10-31T05:28:32;3.78;;;1.40;;
76447;SDS011;65284;51.040;13.722;2023-10-31T05:30:58;2.17;;;1.30;;
76447;SDS011;65284;51.040;13.722;2023-10-31T05:33:25;2.10;;;1.20;;
76447;SDS011;65284;51.040;13.722;2023-10-31T05:35:51;3.92;;;1.10;;
76447;SDS011;65284;51.040;13.722;2023-10-31T05:38:18;2.42;;;1.08;;
76447;SDS011;65284;51.040;13.722;2023-10-31T05:40:44;2.83;;;1.00;;
76447;SDS011;65284;51.040;13.722;2023-10-31T05:43:11;2.85;;;1.00;;
76447;SDS011;65284;51.040;13.722;2023-10-31T05:45:37;2.55;;;0.95;;
76447;SDS011;65284;51.040;13.722;2023-10-31T05:48:04;1.83;;;0.88;;
76447;SDS011;65284;51.040;13.722;2023-10-31T05:50:31;2.90;;;1.00;;
76447;SDS011;65284;51.040;13.722;2023-10-31T05:52:58;3.90;;;1.05;;
76447;SDS011;65284;51.040;13.722;2023-10-31T05:55:24;2.20;;;0.90;;
76447;SDS011;65284;51.040;13.722;2023-10-31T05:57:51;1.63;;;0.80;;
76447;SDS011;65284;51.040;13.722;2023-10-31T06:00:17;1.83;;;0.80;;
76447;SDS011;65284;51.040;13.722;2023-10-31T06:02:44;2.05;;;0.70;;
76447;SDS011;65284;51.040;13.722;2023-10-31T06:05:10;4.03;;;0.82;;
76447;SDS011;65284;51.040;13.722;2023-10-31T06:07:37;3.05;;;1.13;;
76447;SDS011;65284;51.040;13.722;2023-10-31T06:10:03;1.42;;;0.80;;
76447;SDS011;65284;51.040;13.722;2023-10-31T06:12:30;1.15;;;0.60;;
76447;SDS011;65284;51.040;13.722;2023-10-31T06:14:57;0.90;;;0.50;;
76447;SDS011;65284;51.040;13.722;2023-10-31T06:17:23;1.48;;;0.55;;
76447;SDS011;65284;51.040;13.722;2023-10-31T06:19:52;2.58;;;0.60;;
76447;SDS011;65284;51.040;13.722;2023-10-31T06:22:18;1.60;;;0.60;;
76447;SDS011;65284;51.040;13.722;2023-10-31T06:24:45;1.20;;;0.60;;
76447;SDS011;65284;51.040;13.722;2023-10-31T06:27:11;0.85;;;0.50;;
76447;SDS011;65284;51.040;13.722;2023-10-31T06:29:38;1.05;;;0.50;;
76447;SDS011;65284;51.040;13.722;2023-10-31T06:32:25;1.90;;;0.40;;
76447;SDS011;65284;51.040;13.722;2023-10-31T06:34:51;1.80;;;0.40;;
76447;SDS011;65284;51.040;13.722;2023-10-31T06:37:18;0.40;;;0.30;;
76447;SDS011;65284;51.040;13.722;2023-10-31T06:39:44;1.92;;;0.40;;
76447;SDS011;65284;51.040;13.722;2023-10-31T06:42:10;1.45;;;0.70;;
76447;SDS011;65284;51.040;13.722;2023-10-31T06:44:37;0.90;;;0.40;;
76447;SDS011;65284;51.040;13.722;2023-10-31T06:47:03;0.80;;;0.38;;
76447;SDS011;65284;51.040;13.722;2023-10-31T06:49:30;0.88;;;0.35;;
76447;SDS011;65284;51.040;13.722;2023-10-31T06:51:56;1.42;;;0.40;;
76447;SDS011;65284;51.040;13.722;2023-10-31T06:54:23;1.38;;;0.40;;
76447;SDS011;65284;51.040;13.722;2023-10-31T06:56:49;1.02;;;0.40;;
76447;SDS011;65284;51.040;13.722;2023-10-31T06:59:16;0.95;;;0.40;;
76447;SDS011;65284;51.040;13.722;2023-10-31T07:01:43;2.25;;;0.40;;
76447;SDS011;65284;51.040;13.722;2023-10-31T07:04:11;0.50;;;0.30;;
76447;SDS011;65284;51.040;13.722;2023-10-31T07:06:38;1.23;;;0.40;;
76447;SDS011;65284;51.040;13.722;2023-10-31T07:09:04;2.20;;;0.40;;
76447;SDS011;65284;51.040;13.722;2023-10-31T07:11:31;3.70;;;0.47;;
76447;SDS011;65284;51.040;13.722;2023-10-31T07:14:03;0.43;;;0.30;;
76447;SDS011;65284;51.040;13.722;2023-10-31T07:16:31;1.95;;;0.47;;
76447;SDS011;65284;51.040;13.722;2023-10-31T07:18:58;1.70;;;0.40;;
76447;SDS011;65284;51.040;13.722;2023-10-31T07:21:24;0.52;;;0.30;;
76447;SDS011;65284;51.040;13.722;2023-10-31T07:23:52;1.60;;;0.50;;
76447;SDS011;65284;51.040;13.722;2023-10-31T07:26:18;1.10;;;0.45;;
76447;SDS011;65284;51.040;13.722;2023-10-31T07:28:45;0.52;;;0.30;;
76447;SDS011;65284;51.040;13.722;2023-10-31T07:31:13;0.90;;;0.30;;
76447;SDS011;65284;51.040;13.722;2023-10-31T07:33:40;1.83;;;0.30;;
76447;SDS011;65284;51.040;13.722;2023-10-31T07:36:07;0.73;;;0.30;;
76447;SDS011;65284;51.040;13.722;2023-10-31T07:38:34;0.38;;;0.28;;
76447;SDS011;65284;51.040;13.722;2023-10-31T07:41:01;1.50;;;0.40;;
76447;SDS011;65284;51.040;13.722;2023-10-31T07:43:28;0.90;;;0.30;;
76447;SDS011;65284;51.040;13.722;2023-10-31T07:45:54;1.55;;;0.30;;
76447;SDS011;65284;51.040;13.722;2023-10-31T07:48:21;1.73;;;0.30;;
76447;SDS011;65284;51.040;13.722;2023-10-31T07:50:47;1.05;;;0.60;;
76447;SDS011;65284;51.040;13.722;2023-10-31T07:53:14;0.60;;;0.30;;
76447;SDS011;65284;51.040;13.722;2023-10-31T07:55:41;1.73;;;0.22;;
76447;SDS011;65284;51.040;13.722;2023-10-31T07:58:07;1.85;;;0.20;;
76447;SDS011;65284;51.040;13.722;2023-10-31T08:00:35;0.40;;;0.20;;
76447;SDS011;65284;51.040;13.722;2023-10-31T08:03:02;0.80;;;0.20;;
76447;SDS011;65284;51.040;13.722;2023-10-31T08:05:29;0.85;;;0.30;;
76447;SDS011;65284;51.040;13.722;2023-10-31T08:07:55;1.23;;;0.30;;
76447;SDS011;65284;51.040;13.722;2023-10-31T08:10:21;0.40;;;0.20;;
76447;SDS011;65284;51.040;13.722;2023-10-31T08:12:48;0.43;;;0.20;;
76447;SDS011;65284;51.040;13.722;2023-10-31T08:15:14;0.70;;;0.20;;
76447;SDS011;65284;51.040;13.722;2023-10-31T08:17:42;0.77;;;0.20;;
76447;SDS011;65284;51.040;13.722;2023-10-31T08:20:09;0.93;;;0.20;;
76447;SDS011;65284;51.040;13.722;2023-10-31T08:22:36;1.30;;;0.30;;
76447;SDS011;65284;51.040;13.722;2023-10-31T08:25:03;1.08;;;0.20;;
76447;SDS011;65284;51.040;13.722;2023-10-31T08:27:30;0.85;;;0.20;;
76447;SDS011;65284;51.040;13.722;2023-10-31T08:29:57;1.63;;;0.30;;
76447;SDS011;65284;51.040;13.722;2023-10-31T08:32:23;0.50;;;0.10;;
76447;SDS011;65284;51.040;13.722;2023-10-31T08:34:51;3.08;;;0.30;;
76447;SDS011;65284;51.040;13.722;2023-10-31T08:37:17;1.05;;;0.15;;
76447;SDS011;65284;51.040;13.722;2023-10-31T08:39:43;2.55;;;0.40;;
76447;SDS011;65284;51.040;13.722;2023-10-31T08:42:10;1.05;;;0.30;;
76447;SDS011;65284;51.040;13.722;2023-10-31T08:44:36;1.33;;;0.20;;
76447;SDS011;65284;51.040;13.722;2023-10-31T08:47:06;0.32;;;0.20;;
76447;SDS011;65284;51.040;13.722;2023-10-31T08:49:33;0.45;;;0.20;;
76447;SDS011;65284;51.040;13.722;2023-10-31T08:51:59;1.45;;;0.20;;
76447;SDS011;65284;51.040;13.722;2023-10-31T08:54:28;0.68;;;0.20;;
76447;SDS011;65284;51.040;13.722;2023-10-31T08:56:54;0.28;;;0.10;;
76447;SDS011;65284;51.040;13.722;2023-10-31T08:59:21;1.65;;;0.20;;
76447;SDS011;65284;51.040;13.722;2023-10-31T09:01:47;0.52;;;0.10;;
76447;SDS011;65284;51.040;13.722;2023-10-31T09:04:14;0.40;;;0.10;;
76447;SDS011;65284;51.040;13.722;2023-10-31T09:06:40;0.57;;;0.20;;
76447;SDS011;65284;51.040;13.722;2023-10-31T09:09:07;0.75;;;0.13;;
76447;SDS011;65284;51.040;13.722;2023-10-31T09:11:33;0.50;;;0.15;;
76447;SDS011;65284;51.040;13.722;2023-10-31T09:14:00;0.40;;;0.10;;
76447;SDS011;65284;51.040;13.722;2023-10-31T09:16:26;0.50;;;0.20;;
76447;SDS011;65284;51.040;13.722;2023-10-31T09:18:52;0.50;;;0.28;;
76447;SDS011;65284;51.040;13.722;2023-10-31T09:21:19;0.98;;;0.20;;
76447;SDS011;65284;51.040;13.722;2023-10-31T09:23:45;2.05;;;0.20;;
76447;SDS011;65284;51.040;13.722;2023-10-31T09:26:12;0.63;;;0.30;;
76447;SDS011;65284;51.040;13.722;2023-10-31T09:28:39;1.10;;;0.30;;
76447;SDS011;65284;51.040;13.722;2023-10-31T09:31:08;0.73;;;0.20;;
76447;SDS011;65284;51.040;13.722;2023-10-31T09:33:35;2.63;;;0.20;;
76447;SDS011;65284;51.040;13.722;2023-10-31T09:36:01;0.63;;;0.20;;
76447;SDS011;65284;51.040;13.722;2023-10-31T09:38:28;2.72;;;0.30;;
76447;SDS011;65284;51.040;13.722;2023-10-31T09:40:55;0.30;;;0.20;;
76447;SDS011;65284;51.040;13.722;2023-10-31T09:43:21;0.70;;;0.20;;
76447;SDS011;65284;51.040;13.722;2023-10-31T09:45:48;2.08;;;0.25;;
76447;SDS011;65284;51.040;13.722;2023-10-31T09:48:15;0.65;;;0.20;;
76447;SDS011;65284;51.040;13.722;2023-10-31T09:50:42;0.50;;;0.25;;
76447;SDS011;65284;51.040;13.722;2023-10-31T09:53:09;0.50;;;0.20;;
76447;SDS011;65284;51.040;13.722;2023-10-31T09:55:36;0.57;;;0.20;;
76447;SDS011;65284;51.040;13.722;2023-10-31T09:58:04;0.88;;;0.20;;
76447;SDS011;65284;51.040;13.722;2023-10-31T10:00:30;0.85;;;0.20;;
76447;SDS011;65284;51.040;13.722;2023-10-31T10:02:57;0.50;;;0.20;;
76447;SDS011;65284;51.040;13.722;2023-10-31T10:05:24;0.10;;;0.10;;
76447;SDS011;65284;51.040;13.722;2023-10-31T10:07:55;0.43;;;0.20;;
76447;SDS011;65284;51.040;13.722;2023-10-31T10:10:21;1.33;;;0.20;;
76447;SDS011;65284;51.040;13.722;2023-10-31T10:12:48;0.22;;;0.10;;
76447;SDS011;65284;51.040;13.722;2023-10-31T10:15:14;0.70;;;0.20;;
76447;SDS011;65284;51.040;13.722;2023-10-31T10:17:42;0.93;;;0.20;;
76447;SDS011;65284;51.040;13.722;2023-10-31T10:20:14;0.30;;;0.10;;
76447;SDS011;65284;51.040;13.722;2023-10-31T10:22:42;0.40;;;0.10;;
76447;SDS011;65284;51.040;13.722;2023-10-31T10:25:09;0.52;;;0.20;;
76447;SDS011;65284;51.040;13.722;2023-10-31T10:27:38;0.77;;;0.20;;
76447;SDS011;65284;51.040;13.722;2023-10-31T10:30:04;0.17;;;0.10;;
76447;SDS011;65284;51.040;13.722;2023-10-31T10:32:31;0.45;;;0.13;;
76447;SDS011;65284;51.040;13.722;2023-10-31T10:34:58;0.73;;;0.20;;
76447;SDS011;65284;51.040;13.722;2023-10-31T10:37:25;0.25;;;0.10;;
76447;SDS011;65284;51.040;13.722;2023-10-31T10:39:56;1.40;;;0.38;;
76447;SDS011;65284;51.040;13.722;2023-10-31T10:42:30;0.52;;;0.20;;
76447;SDS011;65284;51.040;13.722;2023-10-31T10:45:03;0.63;;;0.20;;
76447;SDS011;65284;51.040;13.722;2023-10-31T10:47:33;0.85;;;0.22;;
76447;SDS011;65284;51.040;13.722;2023-10-31T10:50:02;1.75;;;0.30;;
76447;SDS011;65284;51.040;13.722;2023-10-31T10:52:36;0.55;;;0.20;;
76447;SDS011;65284;51.040;13.722;2023-10-31T10:55:13;1.23;;;0.30;;
76447;SDS011;65284;51.040;13.722;2023-10-31T10:58:03;1.02;;;0.20;;
76447;SDS011;65284;51.040;13.722;2023-10-31T11:00:32;0.32;;;0.10;;
76447;SDS011;65284;51.040;13.722;2023-10-31T11:03:00;0.60;;;0.20;;
76447;SDS011;65284;51.040;13.722;2023-10-31T11:05:28;1.08;;;0.20;;
76447;SDS011;65284;51.040;13.722;2023-10-31T11:07:57;0.40;;;0.20;;
76447;SDS011;65284;51.040;13.722;2023-10-31T11:10:25;0.57;;;0.20;;
76447;SDS011;65284;51.040;13.722;2023-10-31T11:12:53;0.20;;;0.10;;
76447;SDS011;65284;51.040;13.722;2023-10-31T11:15:21;0.77;;;0.20;;
76447;SDS011;65284;51.040;13.722;2023-10-31T11:17:48;0.75;;;0.10;;
76447;SDS011;65284;51.040;13.722;2023-10-31T11:20:16;0.63;;;0.10;;
76447;SDS011;65284;51.040;13.722;2023-10-31T11:22:44;0.50;;;0.20;;
76447;SDS011;65284;51.040;13.722;2023-10-31T11:25:12;1.63;;;0.20;;
76447;SDS011;65284;51.040;13.722;2023-10-31T11:27:51;0.73;;;0.20;;
76447;SDS011;65284;51.040;13.722;2023-10-31T11:32:51;0.35;;;0.10;;
76447;SDS011;65284;51.040;13.722;2023-10-31T11:35:18;0.47;;;0.20;;
76447;SDS011;65284;51.040;13.722;2023-10-31T11:37:47;0.30;;;0.10;;
76447;SDS011;65284;51.040;13.722;2023-10-31T11:42:51;0.20;;;0.10;;
76447;SDS011;65284;51.040;13.722;2023-10-31T11:45:25;1.08;;;0.20;;
76447;SDS011;65284;51.040;13.722;2023-10-31T11:47:57;1.35;;;0.20;;
76447;SDS011;65284;51.040;13.722;2023-10-31T11:50:24;0.98;;;0.20;;
76447;SDS011;65284;51.040;13.722;2023-10-31T11:53:04;0.85;;;0.20;;
76447;SDS011;65284;51.040;13.722;2023-10-31T11:55:35;0.75;;;0.30;;
76447;SDS011;65284;51.040;13.722;2023-10-31T12:00:40;1.23;;;0.20;;
76447;SDS011;65284;51.040;13.722;2023-10-31T12:03:06;1.23;;;0.30;;
76447;SDS011;65284;51.040;13.722;2023-10-31T12:05:33;0.90;;;0.35;;
76447;SDS011;65284;51.040;13.722;2023-10-31T12:08:03;0.50;;;0.25;;
76447;SDS011;65284;51.040;13.722;2023-10-31T12:10:29;1.95;;;0.30;;
76447;SDS011;65284;51.040;13.722;2023-10-31T12:12:57;0.40;;;0.20;;
76447;SDS011;65284;51.040;13.722;2023-10-31T12:15:24;1.98;;;0.30;;
76447;SDS011;65284;51.040;13.722;2023-10-31T12:17:51;1.23;;;0.20;;
76447;SDS011;65284;51.040;13.722;2023-10-31T12:20:18;1.98;;;0.25;;
76447;SDS011;65284;51.040;13.722;2023-10-31T12:22:45;1.05;;;0.30;;
76447;SDS011;65284;51.040;13.722;2023-10-31T12:25:11;2.20;;;0.25;;
76447;SDS011;65284;51.040;13.722;2023-10-31T12:27:41;0.95;;;0.30;;
76447;SDS011;65284;51.040;13.722;2023-10-31T12:30:09;0.52;;;0.30;;
76447;SDS011;65284;51.040;13.722;2023-10-31T12:32:36;1.05;;;0.40;;
76447;SDS011;65284;51.040;13.722;2023-10-31T12:35:03;0.57;;;0.28;;
76447;SDS011;65284;51.040;13.722;2023-10-31T12:37:30;0.68;;;0.30;;
76447;SDS011;65284;51.040;13.722;2023-10-31T12:39:57;0.63;;;0.30;;
76447;SDS011;65284;51.040;13.722;2023-10-31T12:42:24;0.60;;;0.20;;
76447;SDS011;65284;51.040;13.722;2023-10-31T12:44:55;0.80;;;0.20;;
76447;SDS011;65284;51.040;13.722;2023-10-31T12:47:22;0.73;;;0.30;;
76447;SDS011;65284;51.040;13.722;2023-10-31T12:50:04;1.63;;;0.55;;
76447;SDS011;65284;51.040;13.722;2023-10-31T12:52:47;1.08;;;0.30;;
76447;SDS011;65284;51.040;13.722;2023-10-31T12:55:15;0.60;;;0.30;;
76447;SDS011;65284;51.040;13.722;2023-10-31T12:57:44;0.50;;;0.20;;
76447;SDS011;65284;51.040;13.722;2023-10-31T13:00:16;1.58;;;0.73;;
76447;SDS011;65284;51.040;13.722;2023-10-31T13:02:51;1.45;;;0.32;;
76447;SDS011;65284;51.040;13.722;2023-10-31T13:05:19;0.60;;;0.30;;
76447;SDS011;65284;51.040;13.722;2023-10-31T13:07:48;2.20;;;0.40;;
76447;SDS011;65284;51.040;13.722;2023-10-31T13:10:17;0.60;;;0.30;;
76447;SDS011;65284;51.040;13.722;2023-10-31T13:12:46;0.93;;;0.30;;
76447;SDS011;65284;51.040;13.722;2023-10-31T13:15:13;1.20;;;0.30;;
76447;SDS011;65284;51.040;13.722;2023-10-31T13:17:40;0.88;;;0.40;;
76447;SDS011;65284;51.040;13.722;2023-10-31T13:20:09;0.80;;;0.40;;
76447;SDS011;65284;51.040;13.722;2023-10-31T13:22:37;0.63;;;0.32;;
76447;SDS011;65284;51.040;13.722;2023-10-31T13:25:04;0.60;;;0.30;;
76447;SDS011;65284;51.040;13.722;2023-10-31T13:27:32;0.70;;;0.40;;
76447;SDS011;65284;51.040;13.722;2023-10-31T13:29:59;1.55;;;0.38;;
76447;SDS011;65284;51.040;13.722;2023-10-31T13:32:25;0.90;;;0.30;;
76447;SDS011;65284;51.040;13.722;2023-10-31T13:34:52;0.65;;;0.30;;
76447;SDS011;65284;51.040;13.722;2023-10-31T13:37:18;0.80;;;0.38;;
76447;SDS011;65284;51.040;13.722;2023-10-31T13:39:45;0.80;;;0.30;;
76447;SDS011;65284;51.040;13.722;2023-10-31T13:42:12;1.15;;;0.30;;
76447;SDS011;65284;51.040;13.722;2023-10-31T13:44:40;1.05;;;0.45;;
76447;SDS011;65284;51.040;13.722;2023-10-31T13:47:07;0.70;;;0.40;;
76447;SDS011;65284;51.040;13.722;2023-10-31T13:49:34;4.47;;;0.32;;
76447;SDS011;65284;51.040;13.722;2023-10-31T13:52:01;1.20;;;0.60;;
76447;SDS011;65284;51.040;13.722;2023-10-31T13:54:27;1.23;;;0.50;;
76447;SDS011;65284;51.040;13.722;2023-10-31T13:56:54;0.70;;;0.30;;
76447;SDS011;65284;51.040;13.722;2023-10-31T13:59:20;3.10;;;0.43;;
76447;SDS011;65284;51.040;13.722;2023-10-31T14:01:47;1.00;;;0.50;;
76447;SDS011;65284;51.040;13.722;2023-10-31T14:04:13;0.80;;;0.40;;
76447;SDS011;65284;51.040;13.722;2023-10-31T14:06:41;0.80;;;0.40;;
76447;SDS011;65284;51.040;13.722;2023-10-31T14:09:08;1.45;;;0.50;;
76447;SDS011;65284;51.040;13.722;2023-10-31T14:11:36;1.40;;;0.50;;
76447;SDS011;65284;51.040;13.722;2023-10-31T14:14:03;1.08;;;0.47;;
76447;SDS011;65284;51.040;13.722;2023-10-31T14:16:33;1.20;;;0.50;;
76447;SDS011;65284;51.040;13.722;2023-10-31T14:18:59;0.80;;;0.40;;
76447;SDS011;65284;51.040;13.722;2023-10-31T14:21:29;1.52;;;0.50;;
76447;SDS011;65284;51.040;13.722;2023-10-31T14:23:55;1.38;;;0.65;;
76447;SDS011;65284;51.040;13.722;2023-10-31T14:26:33;1.08;;;0.47;;
76447;SDS011;65284;51.040;13.722;2023-10-31T14:29:00;0.95;;;0.40;;
76447;SDS011;65284;51.040;13.722;2023-10-31T14:31:27;1.05;;;0.50;;
76447;SDS011;65284;51.040;13.722;2023-10-31T14:33:54;1.92;;;0.57;;
76447;SDS011;65284;51.040;13.722;2023-10-31T14:36:20;1.75;;;0.40;;
76447;SDS011;65284;51.040;13.722;2023-10-31T14:38:47;0.90;;;0.40;;
76447;SDS011;65284;51.040;13.722;2023-10-31T14:41:13;1.55;;;0.40;;